Bei Facebook empfehlenBei Twitter postenGoogle plusPinterest

Das Wetter im Erzgebirge am 30.05.2016

Wetter und Klima am 30.05.2016 Holzhau im Erzgebirge (630m ü.NN)
Letzte gemessene Temperatur und Uhrzeit der Messung23:45:00 Uhr10.90 °C
Temperatur (Maximum / Höchstwert) und Uhrzeit der Messung16:45:00 Uhr22.80 °C
Temperatur (Minimum / Tiefstwert) und Uhrzeit der Messung23:45:0010.90 °C
Errechneter Absolutwert der Temperaturschwankungen zwischen Tmin und Tmax des Tages11.90 K
Errechnete Tagesmitteltemperatur17.78229 °C
Gesamt - Niederschlag des Tages (in flüssiger Form)0.00 Liter / m²
Luftdruck (Maximum / Höchstwert) und Zeitpunkt der Messung23:45:00 Uhr1006.40 hPa
Luftdruck (Minimum / Tiefstwert) und Zeitpunkt der Messung06:00:00 Uhr1000.70 hPa
Errechneter Absolutwert der Luftdruckschwankungen des Tages5.70 hPa
Höchste gemessene Windgeschwindigkeit und Uhrzeit der Messung23:45:00 Uhr183.60 km/h
Errechnete Windhäufigkeit in Relation zu den Messwerten des Tages100.00000 %
Niedrigste Windkühle (Windchill) und Zeitpunkt der Messung23:45:00 Uhr3.70 °C
Taupunkt (Maximum / Höchstwert) und Uhrzeit der Messung08:30:00 Uhr16.30 °C
Taupunkt (Minimum / Tiefstwert) und Uhrzeit der Messung23:45:008.70 °C
Anzahl der automatisch eingelesenen Messwerte 96

Detaillierte Wetter- und Klima- Messwerte für den 30.05.2016 in Holzhau im Erzgebirge (630m ü.NN)
ZeitTemperaturLuftdruckRel. LuftfeuchteWindWindrichtungWindchillTaupunktNiederschlag l/m²
23:45:0010.90 °C1006.40 hPa86.00 %183.60 km/hSSO3.70 °C8.70 °C 
23:30:0011.30 °C1006.40 hPa85.00 %183.60 km/hSSO4.30 °C8.90 °C 
23:15:0011.40 °C1006.20 hPa84.00 %183.60 km/hSSO4.40 °C8.80 °C 
23:00:0011.80 °C1006.20 hPa83.00 %183.60 km/hSSO5.00 °C9.00 °C 
22:45:0012.00 °C1006.00 hPa82.00 %183.60 km/hSSO5.40 °C9.00 °C 
22:30:0012.30 °C1006.10 hPa81.00 %183.60 km/hSSO5.80 °C9.10 °C 
22:15:0012.80 °C1005.90 hPa81.00 %183.60 km/hSSO6.60 °C9.60 °C 
22:00:0013.20 °C1005.80 hPa79.00 %183.60 km/hSSO7.20 °C9.60 °C 
21:45:0013.60 °C1005.70 hPa78.00 %183.60 km/hSSO7.80 °C9.80 °C 
21:30:0014.30 °C1005.60 hPa75.00 %183.60 km/hSSO8.90 °C9.90 °C 
21:15:0014.90 °C1005.40 hPa74.00 %183.60 km/hSSO9.80 °C10.30 °C 
21:00:0016.00 °C1005.30 hPa71.00 %183.60 km/hSSO11.50 °C10.70 °C 
20:45:0016.90 °C1005.20 hPa69.00 %183.60 km/hSSO12.90 °C11.20 °C 
20:30:0017.50 °C1005.20 hPa68.00 %183.60 km/hSSO13.80 °C11.50 °C 
20:15:0018.10 °C1005.00 hPa66.00 %183.60 km/hSSO14.70 °C11.70 °C 
20:00:0018.80 °C1004.90 hPa64.00 %183.60 km/hSSO15.80 °C11.90 °C 
19:45:0019.40 °C1005.00 hPa62.00 %183.60 km/hSSO16.70 °C11.90 °C 
19:30:0019.90 °C1004.90 hPa62.00 %183.60 km/hSSO17.50 °C12.40 °C 
19:15:0019.90 °C1004.60 hPa63.00 %183.60 km/hSSO17.50 °C12.70 °C 
19:00:0019.90 °C1004.70 hPa63.00 %183.60 km/hSSO17.50 °C12.70 °C 
18:45:0020.80 °C1004.60 hPa61.00 %183.60 km/hSSO18.90 °C13.00 °C 
18:30:0021.80 °C1004.60 hPa60.00 %183.60 km/hSSO20.40 °C13.70 °C 
18:15:0021.60 °C1004.40 hPa62.00 %183.60 km/hSSO20.10 °C14.00 °C 
18:00:0021.10 °C1004.20 hPa63.00 %183.60 km/hSSO19.30 °C13.80 °C 
17:45:0021.20 °C1004.30 hPa61.00 %183.60 km/hSSO19.50 °C13.40 °C 
17:30:0021.50 °C1004.20 hPa61.00 %183.60 km/hSSO19.90 °C13.70 °C 
17:15:0022.10 °C1004.20 hPa61.00 %183.60 km/hSSO20.90 °C14.20 °C 
17:00:0022.40 °C1004.10 hPa61.00 %183.60 km/hSSO21.30 °C14.50 °C 
16:45:0022.80 °C1004.20 hPa60.00 %183.60 km/hSSO21.90 °C14.60 °C 
16:30:0022.70 °C1004.10 hPa63.00 %183.60 km/hSSO21.80 °C15.30 °C 
16:15:0021.80 °C1004.20 hPa64.00 %183.60 km/hSSO20.40 °C14.70 °C 
16:00:0021.80 °C1004.20 hPa64.00 %183.60 km/hSSO20.40 °C14.70 °C 
15:45:0021.60 °C1004.00 hPa62.00 %183.60 km/hSSO20.10 °C14.00 °C 
15:30:0021.80 °C1004.40 hPa63.00 %183.60 km/hSSO20.40 °C14.40 °C 
15:15:0021.90 °C1004.50 hPa64.00 %183.60 km/hSSO20.50 °C14.80 °C 
15:00:0022.10 °C1004.30 hPa63.00 %183.60 km/hSSO20.90 °C14.70 °C 
14:45:0021.60 °C1004.30 hPa66.00 %183.60 km/hSSO20.10 °C15.00 °C 
14:30:0021.60 °C1004.30 hPa64.00 %183.60 km/hSSO20.10 °C14.50 °C 
14:15:0021.90 °C1004.40 hPa65.00 %183.60 km/hSSO20.50 °C15.00 °C 
14:00:0021.80 °C1004.20 hPa67.00 %183.60 km/hSSO20.40 °C15.40 °C 
13:45:0020.80 °C1004.00 hPa72.00 %183.60 km/hSSO18.90 °C15.60 °C 
13:30:0019.80 °C1003.80 hPa72.00 %183.60 km/hSSO17.30 °C14.60 °C 
13:15:0019.90 °C1003.90 hPa73.00 %183.60 km/hSSO17.50 °C14.90 °C 
13:00:0019.60 °C1003.90 hPa75.00 %183.60 km/hSSO17.00 °C15.00 °C 
12:45:0019.60 °C1003.70 hPa75.00 %183.60 km/hSSO17.00 °C15.00 °C 
12:30:0019.30 °C1003.60 hPa75.00 %183.60 km/hSSO16.60 °C14.80 °C 
12:15:0019.20 °C1003.50 hPa76.00 %183.60 km/hSSO16.40 °C14.90 °C 
12:00:0019.10 °C1003.40 hPa75.00 %183.60 km/hSSO16.20 °C14.60 °C 
11:45:0019.70 °C1003.40 hPa74.00 %183.60 km/hSSO17.20 °C14.90 °C 
11:30:0020.40 °C1003.20 hPa75.00 %183.60 km/hSSO18.20 °C15.80 °C 
11:15:0019.80 °C1003.10 hPa78.00 %183.60 km/hSSO17.30 °C15.90 °C 
11:00:0019.10 °C1002.90 hPa81.00 %183.60 km/hSSO16.20 °C15.80 °C 
10:45:0018.50 °C1002.80 hPa83.00 %183.60 km/hSSO15.30 °C15.60 °C 
10:30:0017.50 °C1002.60 hPa85.00 %183.60 km/hSSO13.80 °C15.00 °C 
10:15:0016.50 °C1002.60 hPa85.00 %183.60 km/hSSO12.30 °C14.00 °C 
10:00:0016.20 °C1002.80 hPa85.00 %183.60 km/hSSO11.80 °C13.70 °C 
09:45:0016.30 °C1002.30 hPa85.00 %183.60 km/hSSO12.00 °C13.80 °C 
09:30:0016.70 °C1002.40 hPa85.00 %183.60 km/hSSO12.60 °C14.20 °C 
09:15:0016.90 °C1002.20 hPa85.00 %183.60 km/hSSO12.90 °C14.40 °C 
09:00:0017.40 °C1001.90 hPa85.00 %183.60 km/hSSO13.60 °C14.90 °C 
08:45:0018.50 °C1001.70 hPa86.00 %183.60 km/hSSO15.30 °C16.10 °C 
08:30:0018.10 °C1001.80 hPa89.00 %183.60 km/hSSO14.70 °C16.30 °C 
08:15:0017.40 °C1001.30 hPa90.00 %183.60 km/hSSO13.60 °C15.70 °C 
08:00:0016.10 °C1001.20 hPa91.00 %183.60 km/hSSO11.60 °C14.60 °C 
07:45:0015.90 °C1001.30 hPa91.00 %183.60 km/hSSO11.30 °C14.40 °C 
07:30:0015.90 °C1001.40 hPa90.00 %183.60 km/hSSO11.30 °C14.30 °C 
07:15:0016.10 °C1001.30 hPa91.00 %183.60 km/hSSO11.60 °C14.60 °C 
07:00:0016.30 °C1000.90 hPa90.00 %183.60 km/hSSO12.00 °C14.70 °C 
06:45:0016.30 °C1000.90 hPa90.00 %183.60 km/hSSO12.00 °C14.70 °C 
06:30:0016.20 °C1000.90 hPa90.00 %183.60 km/hSSO11.80 °C14.60 °C 
06:15:0016.30 °C1000.80 hPa89.00 %183.60 km/hSSO12.00 °C14.50 °C 
06:00:0016.40 °C1000.70 hPa89.00 %183.60 km/hSSO12.10 °C14.60 °C 
05:45:0016.40 °C1000.70 hPa89.00 %183.60 km/hSSO12.10 °C14.60 °C 
05:30:0016.30 °C1000.80 hPa89.00 %183.60 km/hSSO12.00 °C14.50 °C 
05:15:0016.30 °C1000.80 hPa89.00 %183.60 km/hSSO12.00 °C14.50 °C 
05:00:0016.50 °C1000.70 hPa89.00 %183.60 km/hSSO12.30 °C14.70 °C 
04:45:0016.60 °C1000.80 hPa89.00 %183.60 km/hSSO12.40 °C14.80 °C 
04:30:0016.90 °C1000.80 hPa90.00 %183.60 km/hSSO12.90 °C15.20 °C 
04:15:0016.80 °C1000.80 hPa90.00 %183.60 km/hSSO12.70 °C15.20 °C 
04:00:0016.70 °C1001.00 hPa90.00 %183.60 km/hSSO12.60 °C15.10 °C 
03:45:0016.30 °C1001.10 hPa91.00 %183.60 km/hSSO12.00 °C14.80 °C 
03:30:0016.00 °C1001.00 hPa90.00 %183.60 km/hSSO11.50 °C14.40 °C 
03:15:0016.10 °C1001.10 hPa90.00 %183.60 km/hSSO11.60 °C14.50 °C 
03:00:0016.10 °C1001.20 hPa89.00 %183.60 km/hSSO11.60 °C14.30 °C 
02:45:0016.40 °C1001.30 hPa89.00 %183.60 km/hSSO12.10 °C14.60 °C 
02:30:0016.40 °C1001.30 hPa90.00 %183.60 km/hSSO12.10 °C14.80 °C 
02:15:0016.40 °C1001.70 hPa90.00 %183.60 km/hSSO12.10 °C14.80 °C 
02:00:0016.50 °C1001.60 hPa90.00 %183.60 km/hSSO12.30 °C14.90 °C 
01:45:0016.60 °C1001.80 hPa90.00 %183.60 km/hSSO12.40 °C15.00 °C 
01:30:0016.60 °C1001.90 hPa90.00 %183.60 km/hSSO12.40 °C15.00 °C 
01:15:0016.30 °C1001.90 hPa90.00 %183.60 km/hSSO12.00 °C14.70 °C 
01:00:0016.30 °C1002.10 hPa90.00 %183.60 km/hSSO12.00 °C14.70 °C 
00:45:0016.60 °C1002.40 hPa90.00 %183.60 km/hSSO12.40 °C15.00 °C 
00:30:0016.60 °C1002.80 hPa90.00 %183.60 km/hSSO12.40 °C15.00 °C 
00:15:0016.40 °C1002.70 hPa90.00 %183.60 km/hSSO12.10 °C14.80 °C 
00:00:0016.40 °C1002.70 hPa90.00 %183.60 km/hSSO12.10 °C14.80 °C 

Permanenter Link zu dieser Seite: Wetter im Erzgebirge am 30.05.2016
Performance-Info: Die Erstellung der Seite / Statistik(en) / Tabelle(n) erforderte 5 Datenbankserver-Abfrage(n) und dauerte 124 Millisekunden. (Dieser Messwert ist von der Gesamt-Auslastung des Servers abhängig.)
Erzgebirge - Wetter | Erzgebirge - Wetter (Mobilgeräte) | Komplette Klimadatenbank